Time;durP1;ratioP1;P1;durP2;ratioP2;P2;SDS_P1;SDS_P2;PMS_P1;PMS_P2;Temp;Humidity;BMP_temperature;BMP_pressure;BME280_temperature;BME280_humidity;BME280_pressure;Samples;Min_cycle;Max_cycle;Signal;HPM_P1;HPM_P2
2021/01/05 00:00:54;;;;;;;33.67;17.75;;;;;;;2.67;90.38;100045.13;4998309;28;20464;-65
2021/01/05 00:03:38;;;;;;;35.15;18.25;;;;;;;2.68;90.62;100038.06;4998395;28;20044;-64
2021/01/05 00:06:22;;;;;;;31.48;16.50;;;;;;;2.72;88.62;100040.41;4998562;28;20133;-65
2021/01/05 00:09:06;;;;;;;39.33;20.88;;;;;;;2.72;89.65;100039.56;5013211;28;20056;-66
2021/01/05 00:12:04;;;;;;;34.85;16.98;;;;;;;2.68;90.32;100038.06;5013077;28;20100;-66
2021/01/05 00:14:49;;;;;;;28.80;14.32;;;;;;;2.68;90.27;100032.78;5013428;28;20100;-67
2021/01/05 00:17:34;;;;;;;27.50;15.40;;;;;;;2.68;89.85;100027.53;4998198;28;20052;-65
2021/01/05 00:20:22;;;;;;;28.23;15.57;;;;;;;2.70;89.74;100028.28;5013243;28;20439;-67
2021/01/05 00:23:06;;;;;;;28.20;16.15;;;;;;;2.69;89.86;100039.75;4998194;28;20121;-65
2021/01/05 00:25:50;;;;;;;;;;;;;;;2.66;90.85;100032.06;4984898;28;20080;-65
2021/01/05 00:28:34;;;;;;;29.83;16.70;;;;;;;2.63;90.67;100033.09;4998166;28;19927;-67
2021/01/05 00:31:17;;;;;;;32.95;17.55;;;;;;;2.64;90.97;100036.59;5012861;28;20298;-65
2021/01/05 00:34:02;;;;;;;27.25;15.52;;;;;;;2.63;91.00;100034.91;5013012;28;20415;-67
2021/01/05 00:36:46;;;;;;;33.10;17.02;;;;;;;2.68;91.42;100033.66;4998089;28;20064;-67
2021/01/05 00:39:30;;;;;;;28.70;15.05;;;;;;;2.71;91.15;100027.34;5013464;28;20048;-67
2021/01/05 00:42:14;;;;;;;23.45;13.65;;;;;;;2.61;91.82;100026.28;4998014;28;20117;-67
2021/01/05 00:44:58;;;;;;;26.30;14.07;;;;;;;2.62;92.32;100025.31;5012847;28;20124;-68
2021/01/05 00:47:42;;;;;;;30.08;15.45;;;;;;;2.62;92.42;100027.97;5013003;28;20052;-67
2021/01/05 00:50:26;;;;;;;30.58;16.85;;;;;;;2.59;92.94;100034.25;5012877;28;20049;-67
2021/01/05 00:53:10;;;;;;;28.60;15.60;;;;;;;2.61;93.46;100026.28;4998284;28;20041;-66
2021/01/05 00:55:54;;;;;;;26.52;15.70;;;;;;;2.58;93.64;100042.22;5012857;28;20053;-67
2021/01/05 00:58:39;;;;;;;28.27;16.33;;;;;;;2.58;94.50;100036.97;5016589;28;20052;-67
2021/01/05 01:01:23;;;;;;;28.33;15.98;;;;;;;2.65;93.48;100038.28;5016415;28;20049;-66
2021/01/05 01:04:07;;;;;;;34.15;16.48;;;;;;;2.64;93.15;100031.31;5001292;28;20053;-67
2021/01/05 01:06:52;;;;;;;28.90;15.30;;;;;;;2.67;92.84;100036.38;5016391;28;20068;-67
2021/01/05 01:09:35;;;;;;;28.13;15.35;;;;;;;2.62;93.59;100039.31;5001183;28;20414;-67
2021/01/05 01:12:22;;;;;;;32.35;16.95;;;;;;;2.66;93.32;100037.31;5016308;28;20104;-67
2021/01/05 01:15:07;;;;;;;30.33;16.77;;;;;;;2.68;93.13;100038.06;5001382;28;20048;-67
2021/01/05 01:17:51;;;;;;;31.48;17.60;;;;;;;2.69;93.33;100040.59;5001058;28;20133;-68
2021/01/05 01:20:35;;;;;;;27.08;16.08;;;;;;;2.74;93.42;100048.19;5016109;28;20041;-67
2021/01/05 01:23:19;;;;;;;28.65;16.70;;;;;;;2.68;93.58;100040.69;5001663;28;20092;-67
2021/01/05 01:26:03;;;;;;;28.33;17.20;;;;;;;2.67;94.21;100033.75;5001186;28;20565;-66
2021/01/05 01:28:48;;;;;;;29.65;16.10;;;;;;;2.67;94.18;100045.13;5001200;28;20053;-67
2021/01/05 01:31:32;;;;;;;28.90;15.70;;;;;;;2.67;94.73;100052.16;5015827;28;20053;-67
2021/01/05 01:34:17;;;;;;;;;;;;;;;2.69;95.23;100039.75;5016377;28;20104;-66
2021/01/05 01:37:04;;;;;;;28.30;15.20;;;;;;;2.72;95.60;100044.84;5000752;28;19960;-67
2021/01/05 01:39:48;;;;;;;33.97;16.25;;;;;;;2.72;95.26;100034.31;5015681;28;20518;-68
2021/01/05 01:42:32;;;;;;;31.70;17.50;;;;;;;2.76;94.74;100038.41;5001269;28;20064;-67
2021/01/05 01:45:23;;;;;;;30.90;18.10;;;;;;;2.78;94.32;100033.88;5015463;28;20184;-67
2021/01/05 01:48:08;;;;;;;28.52;15.68;;;;;;;2.84;94.06;100033.50;5000804;28;20521;-67
2021/01/05 01:50:54;;;;;;;28.08;15.50;;;;;;;2.82;94.31;100033.56;5000477;28;20092;-66
2021/01/05 01:53:45;;;;;;;27.92;15.35;;;;;;;2.85;93.81;100036.00;4987567;28;20407;-67
2021/01/05 01:56:39;;;;;;;27.02;14.75;;;;;;;2.88;94.19;100024.44;5000627;28;20103;-67
2021/01/05 01:59:40;;;;;;;26.48;15.40;;;;;;;2.91;94.78;100026.84;5015705;28;20053;-67
2021/01/05 02:02:52;;;;;;;28.98;15.63;;;;;;;2.87;94.73;100023.59;5000482;28;20049;-67
2021/01/05 02:06:00;;;;;;;29.58;16.13;;;;;;;2.79;95.62;100014.50;5000280;28;20049;-67
2021/01/05 02:09:09;;;;;;;28.80;15.43;;;;;;;2.78;95.78;100025.97;5014236;28;20048;-67
2021/01/05 02:11:58;;;;;;;26.70;14.93;;;;;;;2.81;95.91;100028.41;4999977;28;20095;-67
2021/01/05 02:14:59;;;;;;;29.52;15.80;;;;;;;2.78;96.52;100028.63;5000251;28;20117;-67
2021/01/05 02:18:21;;;;;;;27.88;15.55;;;;;;;2.77;96.60;100033.06;5015154;28;20103;-67
2021/01/05 02:21:10;;;;;;;32.00;18.25;;;;;;;2.84;96.74;100036.13;4994280;28;20454;-67
2021/01/05 02:24:06;;;;;;;30.95;16.88;;;;;;;2.83;96.73;100035.25;5000122;28;20506;-67
2021/01/05 02:27:01;;;;;;;30.42;16.75;;;;;;;2.82;96.91;100035.38;5014886;28;20048;-67
2021/01/05 02:29:50;;;;;;;33.25;18.02;;;;;;;2.87;97.23;100035.91;4999625;28;20517;-66
2021/01/05 02:32:37;;;;;;;32.63;17.63;;;;;;;2.83;97.24;100037.91;4999881;28;20394;-66
2021/01/05 02:35:21;;;;;;;28.40;15.88;;;;;;;2.89;97.81;100039.28;5014803;28;20076;-66
2021/01/05 02:38:46;;;;;;;30.27;17.88;;;;;;;2.85;97.86;100043.06;5014436;28;20048;-67
2021/01/05 02:41:39;;;;;;;;;;;;;;;2.85;98.39;100043.06;5014771;28;20057;-67
2021/01/05 02:44:36;;;;;;;34.75;18.60;;;;;;;2.86;98.80;100042.13;4985785;28;19940;-67
2021/01/05 02:47:26;;;;;;;34.75;18.40;;;;;;;2.85;99.07;100045.69;4999651;28;20048;-67
2021/01/05 02:50:18;;;;;;;28.95;17.15;;;;;;;2.88;99.54;100037.59;4999527;28;20123;-67
2021/01/05 02:53:14;;;;;;;35.35;18.13;;;;;;;2.91;100.00;100043.50;5014210;28;20125;-67
2021/01/05 02:56:22;;;;;;;31.95;17.90;;;;;;;2.90;100.00;100038.31;5014137;28;20073;-67
2021/01/05 02:59:31;;;;;;;35.05;18.60;;;;;;;2.90;100.00;100033.91;5014003;28;20092;-67
2021/01/05 03:02:33;;;;;;;24.42;15.23;;;;;;;2.92;100.00;100031.19;4999321;28;20057;-67
2021/01/05 03:05:17;;;;;;;27.55;15.13;;;;;;;2.95;100.00;100036.25;5014247;28;20045;-67
2021/01/05 03:08:01;;;;;;;23.45;14.20;;;;;;;2.95;100.00;100030.97;4999043;28;20534;-67
2021/01/05 03:10:56;;;;;;;22.75;13.43;;;;;;;2.92;100.00;100025.94;4985424;28;20076;-67
2021/01/05 03:13:49;;;;;;;25.98;15.27;;;;;;;2.92;100.00;100025.94;4999574;28;20407;-67
2021/01/05 03:16:35;;;;;;;22.27;13.52;;;;;;;2.94;100.00;100019.59;4999280;28;20045;-67
2021/01/05 03:19:31;;;;;;;22.70;13.15;;;;;;;2.98;100.00;100023.72;4998939;28;20129;-67
2021/01/05 03:22:16;;;;;;;23.63;14.07;;;;;;;2.99;100.00;100032.44;4999104;28;20053;-67
2021/01/05 03:25:03;;;;;;;24.35;14.90;;;;;;;2.98;100.00;100030.78;4985053;28;20049;-67
2021/01/05 03:27:49;;;;;;;20.13;12.90;;;;;;;2.98;100.00;100030.78;4999124;28;20474;-67
2021/01/05 03:30:43;;;;;;;21.65;13.68;;;;;;;2.96;100.00;100025.63;5013452;28;20099;-67
2021/01/05 03:33:27;;;;;;;24.35;13.73;;;;;;;2.97;100.00;100029.09;4984927;28;20048;-67
2021/01/05 03:36:12;;;;;;;26.30;14.13;;;;;;;2.98;100.00;100031.63;4998983;28;20098;-66
2021/01/05 03:38:56;;;;;;;24.73;12.85;;;;;;;3.01;100.00;100025.28;4998848;28;20064;-66
2021/01/05 03:41:41;;;;;;;23.73;14.05;;;;;;;3.01;100.00;100030.56;4998555;28;20125;-66
2021/01/05 03:44:25;;;;;;;22.00;12.63;;;;;;;3.01;100.00;100022.66;4998734;28;20586;-66
2021/01/05 03:47:09;;;;;;;23.80;12.63;;;;;;;3.00;100.00;100029.72;4998574;28;20576;-67
2021/01/05 03:49:53;;;;;;;23.27;12.35;;;;;;;3.02;100.00;100027.00;4998767;28;20123;-67
2021/01/05 03:52:37;;;;;;;23.38;13.70;;;;;;;3.00;100.00;100028.88;5013604;28;20091;-67
2021/01/05 03:55:21;;;;;;;19.13;12.65;;;;;;;3.01;100.00;100030.56;5013547;28;20107;-67
2021/01/05 03:58:05;;;;;;;22.95;13.07;;;;;;;3.06;100.00;100031.09;4998512;28;20096;-67
2021/01/05 04:00:50;;;;;;;22.83;14.20;;;;;;;3.08;100.00;100031.84;4998520;28;20096;-66
2021/01/05 04:03:34;;;;;;;23.63;13.32;;;;;;;3.08;100.00;100029.22;4998507;28;20540;-67
2021/01/05 04:06:18;;;;;;;18.48;12.23;;;;;;;3.02;100.00;100032.28;5013470;28;20076;-67
2021/01/05 04:09:02;;;;;;;;;;;;;;;3.02;100.00;100027.00;4998790;28;20410;-67
2021/01/05 04:11:46;;;;;;;22.30;12.93;;;;;;;2.99;100.00;100021.91;5013167;28;19971;-66
2021/01/05 04:14:30;;;;;;;21.75;12.88;;;;;;;3.02;100.00;100032.28;5013198;28;20096;-67
2021/01/05 04:17:14;;;;;;;20.63;12.85;;;;;;;2.96;100.00;100032.66;5013203;28;20121;-67
2021/01/05 04:19:59;;;;;;;20.35;13.23;;;;;;;3.04;100.00;100025.94;5013149;28;20139;-67
2021/01/05 04:22:43;;;;;;;20.05;13.05;;;;;;;3.01;100.00;100035.81;5013133;28;20049;-67
2021/01/05 04:25:27;;;;;;;20.92;11.85;;;;;;;2.90;100.00;100038.31;4998533;28;20099;-67
2021/01/05 04:28:11;;;;;;;20.50;11.75;;;;;;;2.90;100.00;100038.31;5013246;28;20123;-66
2021/01/05 04:30:56;;;;;;;21.65;12.27;;;;;;;2.87;100.00;100038.53;5013333;28;20049;-66
2021/01/05 04:33:40;;;;;;;19.92;12.45;;;;;;;2.89;100.00;100036.66;5001995;28;20088;-66
2021/01/05 04:36:24;;;;;;;18.77;11.23;;;;;;;2.92;100.00;100033.81;5016714;28;20423;-66
2021/01/05 04:39:08;;;;;;;19.83;12.77;;;;;;;2.96;100.00;100030.03;5016667;28;20418;-66
2021/01/05 04:41:59;;;;;;;21.25;12.15;;;;;;;2.93;100.00;100038.97;5001999;28;20399;-67
2021/01/05 04:44:57;;;;;;;19.45;11.57;;;;;;;2.94;100.00;100035.38;5001790;28;20466;-67
2021/01/05 04:48:00;;;;;;;20.73;11.73;;;;;;;2.96;100.00;100037.94;5001804;28;20044;-66
2021/01/05 04:50:49;;;;;;;19.23;11.90;;;;;;;2.93;100.00;100043.41;4987978;28;20561;-67
2021/01/05 04:53:44;;;;;;;18.17;11.15;;;;;;;2.92;100.00;100047.00;5001831;28;20176;-67
2021/01/05 04:56:59;;;;;;;18.65;11.55;;;;;;;2.89;100.00;100048.03;5001786;28;20514;-67
2021/01/05 04:59:47;;;;;;;20.98;11.65;;;;;;;2.86;100.00;100052.66;5001678;28;20545;-67
2021/01/05 05:02:30;;;;;;;20.27;12.25;;;;;;;2.84;100.00;100057.19;5001623;28;20088;-66
2021/01/05 05:05:24;;;;;;;18.95;10.93;;;;;;;2.83;100.00;100053.69;5016273;28;20044;-66
2021/01/05 05:08:24;;;;;;;19.65;11.35;;;;;;;2.92;100.00;100052.25;5016074;28;20131;-66
2021/01/05 05:11:15;;;;;;;22.20;11.88;;;;;;;2.89;100.00;100061.19;5001276;28;20048;-66
2021/01/05 05:14:08;;;;;;;19.17;11.38;;;;;;;2.85;100.00;100056.22;5001808;28;20102;-67
2021/01/05 05:17:35;;;;;;;19.10;11.60;;;;;;;2.85;100.00;100061.50;4987640;28;20104;-67
2021/01/05 05:20:34;;;;;;;20.02;11.13;;;;;;;2.86;100.00;100065.81;4981458;28;20044;-66
2021/01/05 05:23:36;;;;;;;22.27;13.30;;;;;;;2.88;100.00;100067.41;5001154;28;20410;-66
2021/01/05 05:26:44;;;;;;;20.75;12.60;;;;;;;2.91;100.00;100071.59;5015812;28;20049;-68
2021/01/05 05:29:37;;;;;;;19.33;12.15;;;;;;;2.89;100.00;100073.50;5001158;28;20510;-65
2021/01/05 05:32:36;;;;;;;19.88;12.70;;;;;;;2.88;100.00;100072.66;5015894;28;20041;-67
2021/01/05 05:35:39;;;;;;;23.73;14.07;;;;;;;2.86;100.00;100079.84;5015666;28;20125;-67
2021/01/05 05:38:43;;;;;;;20.77;12.90;;;;;;;2.88;100.00;100087.63;5000701;28;20052;-66
2021/01/05 05:41:34;;;;;;;22.63;12.90;;;;;;;2.91;100.00;100083.00;5039164;23;20521;-69
2021/01/05 05:44:24;;;;;;;21.73;13.25;;;;;;;2.94;100.00;100087.22;5013991;28;20121;-69
2021/01/05 05:47:22;;;;;;;22.85;13.32;;;;;;;2.89;100.00;100090.16;5015383;28;20045;-69
2021/01/05 05:50:13;;;;;;;26.23;14.80;;;;;;;2.83;100.00;100094.97;5016242;28;20095;-69
2021/01/05 05:53:22;;;;;;;23.75;13.70;;;;;;;2.83;100.00;100092.34;5017340;28;20052;-69
2021/01/05 05:56:13;;;;;;;25.85;14.43;;;;;;;2.84;100.00;100101.94;5003643;28;20056;-70
2021/01/05 05:58:58;;;;;;;21.40;13.65;;;;;;;2.81;100.00;100096.84;5001682;28;20052;-69
2021/01/05 06:01:42;;;;;;;24.05;14.10;;;;;;;2.81;100.00;100097.69;5016138;28;20104;-70
2021/01/05 06:04:27;;;;;;;22.67;13.18;;;;;;;2.83;100.00;100100.25;5002336;28;20194;-69
2021/01/05 06:07:11;;;;;;;22.30;13.43;;;;;;;2.85;100.00;100095.72;5002162;28;20096;-69
2021/01/05 06:09:55;;;;;;;23.95;14.25;;;;;;;2.78;100.00;100099.69;5002168;28;20122;-69
2021/01/05 06:12:39;;;;;;;20.75;12.93;;;;;;;2.71;100.00;100096.63;5001789;28;20053;-69
2021/01/05 06:15:23;;;;;;;23.35;14.20;;;;;;;2.71;100.00;100103.69;5001508;28;20125;-69
2021/01/05 06:18:11;;;;;;;22.02;13.02;;;;;;;2.68;100.00;100107.34;5001274;28;20462;-69
2021/01/05 06:20:55;;;;;;;21.70;13.40;;;;;;;2.68;100.00;100103.84;5016150;28;20049;-70
2021/01/05 06:23:39;;;;;;;24.25;13.45;;;;;;;2.70;100.00;100102.81;5016659;28;20130;-69
2021/01/05 06:26:23;;;;;;;;;;;;;;;2.70;100.00;100105.44;5002165;28;20053;-66
2021/01/05 06:29:07;;;;;;;23.02;12.50;;;;;;;2.75;100.00;100107.78;4988182;28;19946;-70
2021/01/05 06:31:51;;;;;;;22.98;13.95;;;;;;;2.81;100.00;100113.50;5016658;28;20100;-69
2021/01/05 06:34:36;;;;;;;20.38;13.15;;;;;;;2.67;100.00;100120.59;5002093;28;20406;-69
2021/01/05 06:37:20;;;;;;;;;;;;;;;2.65;100.00;100122.47;5017123;28;20053;-67
2021/01/05 06:40:05;;;;;;;22.98;13.82;;;;;;;2.62;100.00;100122.69;5001436;28;19967;-69
2021/01/05 06:42:50;;;;;;;22.40;13.18;;;;;;;2.58;100.00;100121.19;5001539;28;20053;-69
2021/01/05 06:45:34;;;;;;;22.40;13.45;;;;;;;2.65;100.00;100128.56;5001715;28;20105;-69
2021/01/05 06:48:18;;;;;;;23.23;13.25;;;;;;;2.63;100.00;100129.63;5016369;28;20049;-69
2021/01/05 06:51:06;;;;;;;22.05;12.85;;;;;;;2.63;100.00;100140.16;5001553;28;20052;-69
2021/01/05 06:53:49;;;;;;;21.70;12.90;;;;;;;2.69;100.00;100134.50;5001167;28;20052;-68
2021/01/05 06:56:47;;;;;;;27.02;14.60;;;;;;;2.73;100.00;100130.75;4987383;28;20486;-68
2021/01/05 06:59:31;;;;;;;22.75;13.38;;;;;;;2.73;100.00;100136.00;5001570;28;20044;-69
2021/01/05 07:02:15;;;;;;;24.80;13.27;;;;;;;2.71;100.00;100137.91;5016430;28;20048;-68
2021/01/05 07:04:59;;;;;;;24.55;13.70;;;;;;;2.70;100.00;100133.53;5016195;28;20045;-68
2021/01/05 07:07:44;;;;;;;22.20;13.02;;;;;;;2.71;100.00;100132.63;5001450;28;20480;-68
2021/01/05 07:10:28;;;;;;;26.75;13.30;;;;;;;2.69;100.00;100140.63;5001281;28;20080;-69
2021/01/05 07:13:12;;;;;;;;;;;;;;;2.64;100.00;100141.84;5002138;28;20473;-69
2021/01/05 07:15:56;;;;;;;25.63;13.80;;;;;;;2.60;100.00;100140.34;4987793;28;19920;-68
2021/01/05 07:18:41;;;;;;;24.70;14.13;;;;;;;2.59;100.00;100143.91;5001540;28;20045;-68
2021/01/05 07:21:25;;;;;;;24.25;13.07;;;;;;;2.62;100.00;100138.47;5016286;28;20044;-68
2021/01/05 07:24:09;;;;;;;25.35;14.15;;;;;;;2.60;100.00;100137.72;4999711;28;20124;-67
2021/01/05 07:26:53;;;;;;;22.77;12.55;;;;;;;2.57;100.00;100140.53;5013675;28;20107;-68
2021/01/05 07:29:37;;;;;;;23.98;13.88;;;;;;;2.58;100.00;100143.09;4999139;28;20056;-68
2021/01/05 07:32:21;;;;;;;25.88;13.98;;;;;;;2.59;100.00;100143.91;4998657;28;20049;-68
2021/01/05 07:35:07;;;;;;;25.17;13.77;;;;;;;2.60;100.00;100141.19;4998985;28;20052;-68
2021/01/05 07:37:50;;;;;;;24.35;13.43;;;;;;;2.63;100.00;100143.63;4999241;28;20048;-68
2021/01/05 07:40:34;;;;;;;20.30;12.30;;;;;;;2.60;100.00;100150.88;5013695;28;20053;-68
2021/01/05 07:43:18;;;;;;;24.48;13.15;;;;;;;2.66;100.00;100150.50;4984852;28;20052;-68
2021/01/05 07:46:02;;;;;;;25.27;13.68;;;;;;;2.66;100.00;100161.88;5013627;28;20099;-68
2021/01/05 07:48:46;;;;;;;23.00;12.77;;;;;;;2.63;100.00;100155.97;5013468;28;20427;-68
2021/01/05 07:51:31;;;;;;;;;;;;;;;2.57;100.00;100161.59;4971646;28;20104;-66
2021/01/05 07:54:14;;;;;;;21.73;13.03;;;;;;;2.63;100.00;100161.22;4999000;28;19924;-68
2021/01/05 07:56:58;;;;;;;23.25;12.93;;;;;;;2.62;100.00;100162.16;5013395;28;20053;-68
2021/01/05 07:59:42;;;;;;;22.40;13.88;;;;;;;2.57;100.00;100162.44;5013390;28;20100;-68
2021/01/05 08:02:27;;;;;;;24.27;13.63;;;;;;;2.62;100.00;100155.09;5013560;28;20479;-68
2021/01/05 08:05:13;;;;;;;23.48;13.05;;;;;;;2.62;100.00;100159.53;5013496;28;20053;-68
2021/01/05 08:07:57;;;;;;;69.40;34.38;;;;;;;2.59;100.00;100154.44;5002021;28;20480;-67
2021/01/05 08:10:41;;;;;;;28.67;14.88;;;;;;;2.61;100.00;100163.09;5002656;28;20053;-68
2021/01/05 08:13:25;;;;;;;22.58;13.25;;;;;;;2.61;100.00;100147.31;5002225;28;20088;-69
2021/01/05 08:16:12;;;;;;;26.63;14.13;;;;;;;2.71;100.00;100158.94;5002426;28;20084;-67
2021/01/05 08:18:56;;;;;;;23.38;13.23;;;;;;;2.73;100.00;100152.63;5002241;28;20137;-68
2021/01/05 08:21:40;;;;;;;27.67;14.55;;;;;;;2.75;100.00;100149.91;5002467;28;20468;-68
2021/01/05 08:24:24;;;;;;;23.55;13.70;;;;;;;2.73;100.00;100152.63;5017252;28;20049;-67
2021/01/05 08:27:10;;;;;;;22.38;12.70;;;;;;;2.73;100.00;100152.63;5017167;28;20052;-67
2021/01/05 08:29:54;;;;;;;24.80;13.48;;;;;;;2.69;100.00;100151.13;5017231;28;20057;-68
2021/01/05 08:32:38;;;;;;;24.73;13.52;;;;;;;2.76;100.00;100151.59;5017276;28;20088;-66
2021/01/05 08:35:23;;;;;;;24.55;13.77;;;;;;;2.72;100.00;100156.19;5001932;28;20068;-66
2021/01/05 08:38:07;;;;;;;24.80;13.18;;;;;;;2.78;100.00;100149.69;5002164;28;20084;-66
2021/01/05 08:40:51;;;;;;;26.13;13.80;;;;;;;2.73;100.00;100154.44;5016642;28;20112;-66
2021/01/05 08:43:35;;;;;;;28.02;15.02;;;;;;;2.76;100.00;100157.72;5001905;28;20123;-66
2021/01/05 08:46:22;;;;;;;26.05;12.98;;;;;;;2.79;100.00;100146.97;5016889;28;20053;-66
2021/01/05 08:49:05;;;;;;;24.10;13.98;;;;;;;2.77;100.00;100145.38;5001746;28;20045;-66
2021/01/05 08:51:52;;;;;;;24.90;13.57;;;;;;;2.86;100.00;100147.41;5001850;28;20056;-66
2021/01/05 08:54:36;;;;;;;26.35;13.75;;;;;;;2.77;100.00;100146.25;5001870;28;20053;-66
2021/01/05 08:57:20;;;;;;;25.50;14.23;;;;;;;2.88;100.00;100145.53;5016677;28;20621;-69
2021/01/05 09:00:06;;;;;;;24.17;14.15;;;;;;;2.99;100.00;100143.91;5001507;28;20049;-69
2021/01/05 09:02:50;;;;;;;29.27;16.25;;;;;;;2.98;100.00;100141.34;5016665;28;20045;-68
2021/01/05 09:05:34;;;;;;;;;;;;;;;3.03;100.00;100144.56;5017068;28;20104;-67
2021/01/05 09:08:18;;;;;;;23.35;13.20;;;;;;;3.05;100.00;100142.66;5016341;28;19920;-69
2021/01/05 09:11:05;;;;;;;23.42;13.57;;;;;;;3.02;100.00;100140.22;5016636;28;20080;-69
2021/01/05 09:13:50;;;;;;;23.55;13.25;;;;;;;3.09;100.00;100137.09;5016190;28;20052;-68
2021/01/05 09:16:34;;;;;;;22.38;12.77;;;;;;;3.11;100.00;100142.22;5016166;28;20115;-69
2021/01/05 09:19:18;;;;;;;;;;;;;;;3.05;100.00;100143.47;5002001;28;20048;-67
2021/01/05 09:22:02;;;;;;;21.30;12.02;;;;;;;3.06;100.00;100145.16;5001276;28;19924;-68
2021/01/05 09:24:47;;;;;;;21.02;12.45;;;;;;;3.08;100.00;100132.78;5001194;28;20053;-68
2021/01/05 09:27:31;;;;;;;27.30;16.90;;;;;;;3.16;100.00;100140.97;5016110;28;20056;-67
2021/01/05 09:30:17;;;;;;;23.90;13.75;;;;;;;3.16;100.00;100138.34;5016380;28;20052;-66
2021/01/05 09:33:01;;;;;;;24.83;15.27;;;;;;;3.22;100.00;100130.06;5015814;28;20407;-69
2021/01/05 09:35:47;;;;;;;22.52;12.98;;;;;;;3.20;100.00;100136.38;4987442;28;20084;-67
2021/01/05 09:38:31;;;;;;;28.17;16.13;;;;;;;3.26;100.00;100135.97;5001262;28;20080;-69
2021/01/05 09:41:24;;;;;;;24.15;14.48;;;;;;;3.27;99.84;100135.03;5015732;28;20040;-68
2021/01/05 09:44:09;;;;;;;31.50;17.10;;;;;;;3.32;99.10;100135.53;5000760;28;20052;-68
2021/01/05 09:46:56;;;;;;;26.15;15.75;;;;;;;3.31;99.36;100142.63;5015723;28;20517;-68
2021/01/05 09:49:40;;;;;;;25.13;14.20;;;;;;;3.38;99.49;100145.69;4987450;28;20586;-69
2021/01/05 09:52:24;;;;;;;25.60;14.00;;;;;;;3.38;99.70;100145.69;5000889;28;20064;-69
2021/01/05 09:55:08;;;;;;;36.05;18.63;;;;;;;3.38;100.00;100148.31;5000773;28;20064;-69
2021/01/05 09:57:53;;;;;;;45.00;23.17;;;;;;;3.45;99.75;100137.25;5000892;28;20060;-68
2021/01/05 10:00:37;;;;;;;31.02;16.77;;;;;;;3.48;100.00;100152.91;5000821;28;20124;-69
2021/01/05 10:03:21;;;;;;;25.23;14.63;;;;;;;3.42;100.00;100141.91;5015527;28;20482;-69
2021/01/05 10:06:21;;;;;;;31.45;17.35;;;;;;;3.46;100.00;100149.50;5015408;28;20461;-66
2021/01/05 10:09:19;;;;;;;40.25;21.02;;;;;;;3.50;99.92;100151.00;4987518;28;20060;-68
2021/01/05 10:12:04;;;;;;;63.17;33.78;;;;;;;3.48;100.00;100146.75;4974805;28;20052;-69
2021/01/05 10:14:48;;;;;;;28.58;16.85;;;;;;;3.48;100.00;100158.16;5000946;28;20045;-69
2021/01/05 10:17:32;;;;;;;35.45;19.08;;;;;;;3.50;100.00;100155.41;5000676;28;20088;-68
2021/01/05 10:20:19;;;;;;;46.55;25.73;;;;;;;3.51;100.00;100159.72;5001103;28;20502;-69
2021/01/05 10:23:03;;;;;;;31.00;17.95;;;;;;;3.49;99.77;100159.00;5015332;28;20048;-68
2021/01/05 10:25:47;;;;;;;28.67;15.65;;;;;;;3.50;99.68;100150.13;5000315;28;20124;-68
2021/01/05 10:28:58;;;;;;;31.95;18.02;;;;;;;3.57;99.57;100152.25;4986417;28;20053;-68
2021/01/05 10:32:00;;;;;;;27.25;14.50;;;;;;;3.43;100.00;100154.97;5000536;28;20045;-66
2021/01/05 10:34:51;;;;;;;29.38;16.15;;;;;;;3.46;100.00;100146.03;5001196;28;20071;-66
2021/01/05 10:37:39;;;;;;;26.35;15.52;;;;;;;3.42;100.00;100148.03;5015530;28;20048;-69
2021/01/05 10:40:23;;;;;;;25.00;13.55;;;;;;;3.47;99.96;100145.09;5000052;28;20052;-69
2021/01/05 10:43:07;;;;;;;;;;;;;;;3.43;99.26;100154.16;5000270;28;20076;-68
2021/01/05 10:45:51;;;;;;;26.17;14.80;;;;;;;3.42;99.96;100145.38;5000947;28;19975;-65
2021/01/05 10:48:36;;;;;;;22.50;13.75;;;;;;;3.43;100.00;100143.59;5017140;28;20049;-67
2021/01/05 10:51:19;;;;;;;22.65;12.57;;;;;;;3.42;100.00;100136.63;5001626;28;20053;-67
2021/01/05 10:54:04;;;;;;;22.75;12.60;;;;;;;3.34;100.00;100141.59;5001033;28;20048;-69
2021/01/05 10:57:02;;;;;;;21.48;12.10;;;;;;;3.44;100.00;100145.28;5000591;28;20057;-67
2021/01/05 10:59:54;;;;;;;19.80;12.07;;;;;;;3.37;100.00;100130.84;5000594;28;20048;-68
2021/01/05 11:02:37;;;;;;;22.00;12.63;;;;;;;3.42;100.00;100131.34;5015149;28;20122;-69
2021/01/05 11:05:22;;;;;;;23.20;13.55;;;;;;;3.34;100.00;100128.41;5015531;28;20057;-68
2021/01/05 11:08:08;;;;;;;22.83;13.52;;;;;;;3.32;100.00;100125.88;5014646;28;20556;-68
2021/01/05 11:10:52;;;;;;;23.13;12.55;;;;;;;3.36;100.00;100126.50;4999645;28;20053;-68
2021/01/05 11:13:36;;;;;;;27.27;14.82;;;;;;;3.32;100.00;100123.22;4999698;28;20509;-68
2021/01/05 11:16:19;;;;;;;21.17;12.55;;;;;;;3.30;100.00;100121.63;5014230;28;20048;-68
2021/01/05 11:19:04;;;;;;;24.25;13.60;;;;;;;3.35;100.00;100120.38;5014477;28;20557;-68
2021/01/05 11:21:52;;;;;;;22.75;13.40;;;;;;;3.34;100.00;100121.34;5014127;28;20088;-68
2021/01/05 11:24:37;;;;;;;23.70;13.10;;;;;;;3.40;100.00;100115.66;5014438;28;20048;-68
2021/01/05 11:27:21;;;;;;;20.67;12.52;;;;;;;3.47;100.00;100113.47;5014206;28;20053;-68
2021/01/05 11:30:07;;;;;;;20.30;12.38;;;;;;;3.39;100.00;100121.88;5014171;28;20414;-68
2021/01/05 11:32:51;;;;;;;21.30;12.27;;;;;;;3.41;100.00;100119.13;5013817;28;20141;-68
2021/01/05 11:35:35;;;;;;;23.02;13.13;;;;;;;3.40;100.00;100112.16;4999158;28;20109;-69
2021/01/05 11:38:20;;;;;;;24.05;13.93;;;;;;;3.45;100.00;100108.28;5013999;28;20049;-68
2021/01/05 11:41:03;;;;;;;25.67;14.52;;;;;;;3.49;100.00;100108.91;5012738;28;20049;-69
2021/01/05 11:43:48;;;;;;;21.80;12.95;;;;;;;3.48;100.00;100108.09;5014107;28;20049;-68
2021/01/05 11:46:32;;;;;;;22.23;13.90;;;;;;;3.45;100.00;100100.38;5013763;28;20056;-69
2021/01/05 11:49:16;;;;;;;22.90;12.93;;;;;;;3.41;100.00;100100.69;5013816;28;20048;-67
2021/01/05 11:52:00;;;;;;;21.83;12.82;;;;;;;3.47;100.00;100095.00;5013568;28;20535;-67
2021/01/05 11:54:45;;;;;;;21.50;13.15;;;;;;;3.35;100.00;100098.47;4999147;28;20489;-67
2021/01/05 11:57:28;;;;;;;22.33;13.43;;;;;;;3.39;100.00;100094.69;4999081;28;20049;-68
2021/01/05 12:00:17;;;;;;;24.13;14.18;;;;;;;3.43;100.00;100093.53;4999099;28;20111;-67
2021/01/05 12:03:01;;;;;;;22.48;14.00;;;;;;;3.39;100.00;100089.41;5013776;28;20069;-67
2021/01/05 12:05:46;;;;;;;22.85;13.68;;;;;;;3.42;100.00;100089.19;4998980;28;20056;-69
2021/01/05 12:08:30;;;;;;;24.52;14.45;;;;;;;3.40;100.00;100080.56;5013608;28;20120;-68
2021/01/05 12:11:29;;;;;;;29.98;15.48;;;;;;;3.46;100.00;100088.88;4985267;28;20414;-66
2021/01/05 12:14:14;;;;;;;25.02;14.30;;;;;;;3.46;100.00;100080.97;5013782;28;20053;-68
2021/01/05 12:17:00;;;;;;;24.45;13.80;;;;;;;3.47;100.00;100081.84;4998974;28;20045;-68
2021/01/05 12:19:44;;;;;;;26.80;15.25;;;;;;;3.53;100.00;100078.78;4998762;28;20048;-68
2021/01/05 12:22:29;;;;;;;28.33;17.63;;;;;;;3.50;100.00;100074.56;5013491;28;20095;-68
2021/01/05 12:25:13;;;;;;;27.33;15.30;;;;;;;3.59;100.00;100076.56;4998773;28;20413;-68
2021/01/05 12:27:57;;;;;;;25.52;15.35;;;;;;;3.62;100.00;100070.22;4971230;28;20141;-68
2021/01/05 12:30:44;;;;;;;30.40;16.20;;;;;;;3.57;100.00;100075.00;5013482;28;20045;-68
2021/01/05 12:33:28;;;;;;;29.95;17.42;;;;;;;3.66;100.00;100071.72;4998515;28;20518;-68
2021/01/05 12:36:12;;;;;;;25.77;15.38;;;;;;;3.73;100.00;100078.22;5013545;28;20183;-68
2021/01/05 12:38:56;;;;;;;25.30;14.77;;;;;;;3.80;100.00;100068.97;4999050;28;20553;-68
2021/01/05 12:41:41;;;;;;;24.10;14.45;;;;;;;3.68;100.00;100072.44;5013262;28;20095;-68
2021/01/05 12:44:28;;;;;;;25.30;14.18;;;;;;;3.60;100.00;100066.88;5013472;28;20080;-68
2021/01/05 12:47:13;;;;;;;26.90;14.75;;;;;;;3.59;100.00;100070.44;4998511;28;20056;-68